createdAt,value
2018-07-10T00:00:02.367Z,98585.02
2018-07-10T00:02:41.075Z,98583.90
2018-07-10T00:05:26.066Z,98580.12
2018-07-10T00:10:41.995Z,98578.63
2018-07-10T00:13:09.390Z,98569.00
2018-07-10T00:15:38.249Z,98565.11
2018-07-10T00:20:55.686Z,98557.20
2018-07-10T00:23:22.946Z,98561.66
2018-07-10T00:25:50.196Z,98552.45
2018-07-10T00:28:17.495Z,98557.05
2018-07-10T00:30:44.753Z,98560.21
2018-07-10T00:33:12.030Z,98550.92
2018-07-10T00:35:39.326Z,98552.36
2018-07-10T00:38:17.894Z,98557.67
2018-07-10T00:40:45.210Z,98558.92
2018-07-10T00:43:12.489Z,98550.80
2018-07-10T00:45:39.986Z,98552.64
2018-07-10T00:48:07.377Z,98549.48
2018-07-10T00:50:35.014Z,98556.03
2018-07-10T00:53:02.339Z,98555.96
2018-07-10T00:55:29.679Z,98549.95
2018-07-10T00:57:57.270Z,98551.70
2018-07-10T01:00:28.541Z,98554.50
2018-07-10T01:02:56.257Z,98557.84
2018-07-10T01:05:23.551Z,98560.30
2018-07-10T01:07:50.879Z,98553.05
2018-07-10T01:10:18.117Z,98558.23
2018-07-10T01:12:45.374Z,98561.82
2018-07-10T01:15:12.635Z,98557.83
2018-07-10T01:17:39.934Z,98553.46
2018-07-10T01:20:07.257Z,98560.48
2018-07-10T01:22:34.546Z,98556.78
2018-07-10T01:25:01.829Z,98544.41
2018-07-10T01:27:29.122Z,98541.95
2018-07-10T01:29:56.424Z,98546.61
2018-07-10T01:32:23.730Z,98539.84
2018-07-10T01:34:51.022Z,98525.83
2018-07-10T01:37:18.329Z,98523.51
2018-07-10T01:39:45.598Z,98517.73
2018-07-10T01:42:12.859Z,98521.87
2018-07-10T01:44:40.130Z,98518.25
2018-07-10T01:47:07.441Z,98515.84
2018-07-10T01:49:34.722Z,98507.09
2018-07-10T01:52:02.036Z,98500.62
2018-07-10T01:54:29.316Z,98498.90
2018-07-10T01:56:56.611Z,98493.45
2018-07-10T01:59:24.030Z,98493.64
2018-07-10T02:01:51.395Z,98496.34
2018-07-10T02:04:18.721Z,98478.53
2018-07-10T02:06:46.019Z,98479.00
2018-07-10T02:09:13.326Z,98488.39
2018-07-10T02:11:40.635Z,98484.84
2018-07-10T02:14:08.041Z,98475.88
2018-07-10T02:16:35.283Z,98478.61
2018-07-10T02:19:03.094Z,98470.11
2018-07-10T02:21:30.414Z,98478.06
2018-07-10T02:23:57.758Z,98479.31
2018-07-10T02:26:26.152Z,98477.33
2018-07-10T02:28:54.262Z,98474.91
2018-07-10T02:31:21.585Z,98477.02
2018-07-10T02:33:49.486Z,98482.28
2018-07-10T02:36:17.219Z,98472.53
2018-07-10T02:38:47.631Z,98464.50
2018-07-10T02:41:19.064Z,98461.19
2018-07-10T02:43:54.337Z,98464.50
2018-07-10T02:46:21.893Z,98472.66
2018-07-10T02:48:49.467Z,98475.14
2018-07-10T02:51:16.915Z,98475.95
2018-07-10T02:53:45.273Z,98488.41
2018-07-10T02:56:14.239Z,98493.59
2018-07-10T02:58:41.522Z,98499.61
2018-07-10T03:01:08.894Z,98496.09
2018-07-10T03:03:39.409Z,98491.31
2018-07-10T03:06:06.699Z,98496.59
2018-07-10T03:08:34.259Z,98507.17
2018-07-10T03:11:01.685Z,98517.80
2018-07-10T03:13:29.045Z,98512.42
2018-07-10T03:15:56.384Z,98496.98
2018-07-10T03:18:25.917Z,98494.03
2018-07-10T03:20:54.329Z,98497.14
2018-07-10T03:23:22.761Z,98497.34
2018-07-10T03:25:50.541Z,98497.97
2018-07-10T03:28:17.909Z,98502.70
2018-07-10T03:30:45.323Z,98498.66
2018-07-10T03:33:12.758Z,98497.40
2018-07-10T03:35:40.174Z,98498.52
2018-07-10T03:38:08.215Z,98490.23
2018-07-10T03:40:35.685Z,98496.94
2018-07-10T03:43:03.098Z,98501.42
2018-07-10T03:45:30.534Z,98514.80
2018-07-10T03:47:58.983Z,98519.30
2018-07-10T03:50:27.215Z,98522.87
2018-07-10T03:52:54.669Z,98522.22
2018-07-10T03:55:22.123Z,98524.96
2018-07-10T03:57:53.252Z,98514.20
2018-07-10T04:00:20.681Z,98504.11
2018-07-10T04:02:50.156Z,98506.68
2018-07-10T04:05:19.380Z,98501.20
2018-07-10T04:07:48.935Z,98514.93
2018-07-10T04:10:16.902Z,98509.52
2018-07-10T04:12:46.659Z,98517.22
2018-07-10T04:15:14.431Z,98513.16
2018-07-10T04:17:53.943Z,98511.89
2018-07-10T04:20:21.439Z,98511.14
2018-07-10T04:22:53.341Z,98512.75
2018-07-10T04:25:25.119Z,98511.75
2018-07-10T04:27:59.507Z,98503.61
2018-07-10T04:32:35.921Z,98509.31
2018-07-10T04:35:03.601Z,98508.94
2018-07-10T04:37:31.008Z,98502.15
2018-07-10T04:39:59.197Z,98506.40
2018-07-10T04:42:30.122Z,98511.68
2018-07-10T04:45:02.339Z,98513.69
2018-07-10T04:47:39.807Z,98502.00
2018-07-10T04:50:17.125Z,98498.70
2018-07-10T04:52:51.566Z,98504.70
2018-07-10T04:55:19.056Z,98506.87
2018-07-10T04:57:56.274Z,98497.23
2018-07-10T05:00:24.447Z,98507.28
2018-07-10T05:02:53.301Z,98504.91
2018-07-10T05:05:20.760Z,98499.03
2018-07-10T05:07:48.171Z,98508.86
2018-07-10T05:10:17.495Z,98508.68
2018-07-10T05:12:45.056Z,98503.59
2018-07-10T05:15:12.734Z,98496.23
2018-07-10T05:17:41.353Z,98490.41
2018-07-10T05:20:08.627Z,98497.81
2018-07-10T05:22:36.049Z,98492.25
2018-07-10T05:25:03.509Z,98505.55
2018-07-10T05:27:31.491Z,98498.88
2018-07-10T05:29:58.955Z,98502.91
2018-07-10T05:32:26.803Z,98504.53
2018-07-10T05:34:55.239Z,98499.34
2018-07-10T05:37:30.771Z,98502.84
2018-07-10T05:39:59.684Z,98504.75
2018-07-10T05:42:27.099Z,98505.15
2018-07-10T05:44:54.575Z,98507.86
2018-07-10T05:47:21.973Z,98506.01
2018-07-10T05:49:49.386Z,98504.38
2018-07-10T05:52:18.456Z,98497.64
2018-07-10T05:54:45.862Z,98502.78
2018-07-10T05:57:13.203Z,98503.05
2018-07-10T05:59:40.541Z,98516.05
2018-07-10T06:02:07.883Z,98519.49
2018-07-10T06:04:38.872Z,98530.45
2018-07-10T06:07:06.525Z,98527.81
2018-07-10T06:09:34.014Z,98514.13
2018-07-10T06:12:01.547Z,98511.17
2018-07-10T06:14:28.962Z,98511.76
2018-07-10T06:16:56.343Z,98511.88
2018-07-10T06:19:23.738Z,98512.73
2018-07-10T06:21:52.783Z,98505.86
2018-07-10T06:24:29.469Z,98501.64
2018-07-10T06:27:00.783Z,98502.13
2018-07-10T06:29:51.729Z,98510.51
2018-07-10T06:32:21.064Z,98510.81
2018-07-10T06:34:50.933Z,98516.43
2018-07-10T06:37:28.826Z,98523.15
2018-07-10T06:39:56.374Z,98517.86
2018-07-10T06:42:28.555Z,98521.87
2018-07-10T06:44:56.384Z,98520.81
2018-07-10T06:47:28.047Z,98522.63
2018-07-10T06:49:55.459Z,98517.52
2018-07-10T06:52:23.144Z,98516.36
2018-07-10T06:55:15.025Z,98515.34
2018-07-10T06:57:52.286Z,98505.44
2018-07-10T07:00:20.417Z,98509.64
2018-07-10T07:02:48.364Z,98512.61
2018-07-10T07:05:15.745Z,98507.45
2018-07-10T07:07:43.134Z,98516.09
2018-07-10T07:10:14.358Z,98515.16
2018-07-10T07:12:42.547Z,98514.23
2018-07-10T07:15:17.302Z,98507.82
2018-07-10T07:17:48.121Z,98504.41
2018-07-10T07:20:15.578Z,98509.87
2018-07-10T07:22:43.011Z,98510.42
2018-07-10T07:25:10.315Z,98514.87
2018-07-10T07:27:37.858Z,98511.72
2018-07-10T07:30:05.304Z,98513.13
2018-07-10T07:32:33.837Z,98512.88
2018-07-10T07:35:02.334Z,98511.16
2018-07-10T07:37:30.471Z,98510.95
2018-07-10T07:39:58.150Z,98508.66
2018-07-10T07:42:26.641Z,98509.02
2018-07-10T07:44:54.059Z,98509.47
2018-07-10T07:47:26.571Z,98508.00
2018-07-10T07:49:54.438Z,98499.02
2018-07-10T07:52:23.887Z,98494.02
2018-07-10T07:54:51.292Z,98491.37
2018-07-10T07:57:18.785Z,98484.34
2018-07-10T07:59:46.208Z,98483.68
2018-07-10T08:02:13.718Z,98476.69
2018-07-10T08:04:41.056Z,98480.09
2018-07-10T08:07:09.044Z,98464.75
2018-07-10T08:09:36.445Z,98459.25
2018-07-10T08:12:03.987Z,98457.55
2018-07-10T08:14:32.215Z,98461.13
2018-07-10T08:16:59.653Z,98462.73
2018-07-10T08:19:27.040Z,98460.91
2018-07-10T08:21:54.472Z,98454.57
2018-07-10T08:24:23.303Z,98460.59
2018-07-10T08:26:53.458Z,98452.75
2018-07-10T08:29:21.664Z,98452.19
2018-07-10T08:31:49.099Z,98455.75
2018-07-10T08:34:16.485Z,98459.04
2018-07-10T08:36:44.374Z,98446.96
2018-07-10T08:39:11.915Z,98439.91
2018-07-10T08:41:43.881Z,98444.74
2018-07-10T08:44:11.749Z,98434.08
2018-07-10T08:46:39.177Z,98433.83
2018-07-10T08:49:06.677Z,98426.92
2018-07-10T08:51:34.255Z,98419.30
2018-07-10T08:54:01.716Z,98414.41
2018-07-10T08:56:29.348Z,98403.08
2018-07-10T08:58:57.433Z,98403.11
2018-07-10T09:01:25.582Z,98406.95
2018-07-10T09:03:53.055Z,98416.51
2018-07-10T09:06:20.372Z,98410.52
2018-07-10T09:08:47.823Z,98415.79
2018-07-10T09:11:15.202Z,98417.01
2018-07-10T09:13:42.659Z,98417.59
2018-07-10T09:16:10.078Z,98415.24
2018-07-10T09:18:37.464Z,98410.86
2018-07-10T09:21:04.941Z,98411.88
2018-07-10T09:23:32.804Z,98410.21
2018-07-10T09:26:00.817Z,98409.09
2018-07-10T09:28:31.244Z,98414.53
2018-07-10T09:30:59.231Z,98416.77
2018-07-10T09:33:26.760Z,98418.52
2018-07-10T09:35:54.145Z,98420.89
2018-07-10T09:38:21.716Z,98419.89
2018-07-10T09:40:49.354Z,98418.70
2018-07-10T09:43:16.781Z,98421.83
2018-07-10T09:45:44.147Z,98421.04
2018-07-10T09:48:11.584Z,98417.12
2018-07-10T09:50:39.468Z,98413.02
2018-07-10T09:53:06.998Z,98415.47
2018-07-10T09:55:34.564Z,98412.67
2018-07-10T09:58:02.173Z,98409.31
2018-07-10T10:00:36.017Z,98407.48
2018-07-10T10:03:04.073Z,98404.78
2018-07-10T10:05:36.039Z,98397.73
2018-07-10T10:08:03.660Z,98404.23
2018-07-10T10:10:31.061Z,98406.48
2018-07-10T10:12:58.403Z,98406.97
2018-07-10T10:15:35.615Z,98395.03
2018-07-10T10:18:05.325Z,98390.75
2018-07-10T10:20:34.859Z,98392.31
2018-07-10T10:23:03.294Z,98397.98
2018-07-10T10:25:33.029Z,98401.94
2018-07-10T10:28:00.438Z,98396.72
2018-07-10T10:30:27.893Z,98398.67
2018-07-10T10:32:55.334Z,98393.72
2018-07-10T10:35:23.114Z,98391.55
2018-07-10T10:37:50.531Z,98388.98
2018-07-10T10:40:18.296Z,98389.49
2018-07-10T10:42:45.667Z,98390.02
2018-07-10T10:45:13.056Z,98392.83
2018-07-10T10:47:40.395Z,98393.88
2018-07-10T10:50:07.842Z,98387.44
2018-07-10T10:52:35.261Z,98372.61
2018-07-10T10:55:02.695Z,98371.97
2018-07-10T10:57:33.470Z,98372.04
2018-07-10T11:00:00.942Z,98369.42
2018-07-10T11:02:28.438Z,98362.02
2018-07-10T11:04:55.994Z,98361.97
2018-07-10T11:07:23.390Z,98362.87
2018-07-10T11:09:50.833Z,98355.52
2018-07-10T11:12:18.489Z,98359.83
2018-07-10T11:14:46.280Z,98358.91
2018-07-10T11:17:19.948Z,98351.30
2018-07-10T11:19:55.158Z,98353.86
2018-07-10T11:22:23.271Z,98350.89
2018-07-10T11:25:01.145Z,98347.25
2018-07-10T11:27:34.269Z,98343.95
2018-07-10T11:30:01.739Z,98345.73
2018-07-10T11:32:29.075Z,98354.05
2018-07-10T11:34:56.567Z,98352.42
2018-07-10T11:37:24.088Z,98350.25
2018-07-10T11:39:51.564Z,98346.52
2018-07-10T11:42:18.887Z,98342.06
2018-07-10T11:44:46.460Z,98340.91
2018-07-10T11:47:16.285Z,98337.72
2018-07-10T11:49:43.698Z,98340.69
2018-07-10T11:52:11.287Z,98334.25
2018-07-10T11:54:38.691Z,98336.55
2018-07-10T11:57:06.630Z,98336.25
2018-07-10T11:59:34.822Z,98337.48
2018-07-10T12:02:02.751Z,98340.17
2018-07-10T12:04:35.526Z,98339.80
2018-07-10T12:07:02.931Z,98338.14
2018-07-10T12:09:30.484Z,98337.86
2018-07-10T12:11:57.965Z,98340.39
2018-07-10T12:14:25.402Z,98337.04
2018-07-10T12:16:54.955Z,98335.72
2018-07-10T12:19:22.380Z,98343.06
2018-07-10T12:21:49.817Z,98340.83
2018-07-10T12:24:17.200Z,98334.25
2018-07-10T12:26:44.675Z,98337.80
2018-07-10T12:29:12.226Z,98336.25
2018-07-10T12:31:39.639Z,98338.42
2018-07-10T12:34:07.282Z,98329.20
2018-07-10T12:36:35.639Z,98335.95
2018-07-10T12:39:04.338Z,98337.77
2018-07-10T12:41:31.791Z,98340.20
2018-07-10T12:43:59.197Z,98333.86
2018-07-10T12:46:26.678Z,98331.87
2018-07-10T12:48:54.319Z,98331.78
2018-07-10T12:51:22.570Z,98332.05
2018-07-10T12:53:49.927Z,98334.05
2018-07-10T12:56:17.478Z,98332.95
2018-07-10T12:58:45.047Z,98337.45
2018-07-10T13:01:12.441Z,98330.22
2018-07-10T13:03:40.021Z,98334.48
2018-07-10T13:06:07.897Z,98333.02
2018-07-10T13:08:35.781Z,98329.06
2018-07-10T13:11:03.375Z,98335.94
2018-07-10T13:13:30.801Z,98332.91
2018-07-10T13:15:58.201Z,98332.80
2018-07-10T13:18:27.899Z,98331.36
2018-07-10T13:20:55.350Z,98333.69
2018-07-10T13:23:22.781Z,98332.75
2018-07-10T13:25:50.159Z,98333.99
2018-07-10T13:28:17.587Z,98326.56
2018-07-10T13:30:45.251Z,98328.39
2018-07-10T13:33:12.791Z,98332.39
2018-07-10T13:35:45.700Z,98332.23
2018-07-10T13:38:13.746Z,98339.06
2018-07-10T13:40:41.157Z,98336.54
2018-07-10T13:43:09.690Z,98339.78
2018-07-10T13:45:37.172Z,98333.75
2018-07-10T13:48:07.471Z,98336.18
2018-07-10T13:50:35.071Z,98338.81
2018-07-10T13:53:03.759Z,98344.20
2018-07-10T13:55:31.785Z,98331.22
2018-07-10T13:58:20.122Z,98332.48
2018-07-10T14:00:50.129Z,98338.53
2018-07-10T14:03:17.703Z,98339.22
2018-07-10T14:05:45.126Z,98336.36
2018-07-10T14:08:12.543Z,98338.50
2018-07-10T14:10:39.956Z,98333.55
2018-07-10T14:13:07.531Z,98331.81
2018-07-10T14:15:34.986Z,98332.94
2018-07-10T14:18:03.315Z,98332.73
2018-07-10T14:20:54.101Z,98329.55
2018-07-10T14:23:21.948Z,98327.05
2018-07-10T14:25:50.527Z,98327.82
2018-07-10T14:28:17.986Z,98325.00
2018-07-10T14:30:45.458Z,98327.02
2018-07-10T14:33:12.893Z,98322.41
2018-07-10T14:35:40.266Z,98320.64
2018-07-10T14:38:10.215Z,98319.13
2018-07-10T14:40:42.430Z,98321.76
2018-07-10T14:43:09.850Z,98317.53
2018-07-10T14:45:38.136Z,98318.83
2018-07-10T14:48:06.340Z,98313.94
2018-07-10T14:50:33.856Z,98308.41
2018-07-10T14:53:01.373Z,98306.81
2018-07-10T14:55:30.166Z,98304.39
2018-07-10T14:57:57.652Z,98298.23
2018-07-10T15:00:25.104Z,98300.96
2018-07-10T15:02:52.558Z,98296.66
2018-07-10T15:05:19.981Z,98301.77
2018-07-10T15:07:47.413Z,98304.71
2018-07-10T15:10:14.919Z,98294.13
2018-07-10T15:12:42.328Z,98296.85
2018-07-10T15:15:10.349Z,98290.55
2018-07-10T15:17:43.354Z,98289.59
2018-07-10T15:20:10.739Z,98292.92
2018-07-10T15:22:38.639Z,98293.30
2018-07-10T15:25:06.125Z,98296.16
2018-07-10T15:27:34.276Z,98298.01
2018-07-10T15:30:01.670Z,98294.34
2018-07-10T15:32:29.088Z,98296.51
2018-07-10T15:34:57.789Z,98290.26
2018-07-10T15:37:25.333Z,98297.77
2018-07-10T15:39:53.349Z,98293.87
2018-07-10T15:42:20.714Z,98297.20
2018-07-10T15:44:48.192Z,98295.83
2018-07-10T15:47:15.545Z,98299.11
2018-07-10T15:49:43.560Z,98299.86
2018-07-10T15:52:10.996Z,98303.00
2018-07-10T15:54:38.451Z,98300.80
2018-07-10T15:57:05.869Z,98308.03
2018-07-10T15:59:33.294Z,98305.47
2018-07-10T16:02:00.543Z,98309.00
2018-07-10T16:04:27.822Z,98314.50
2018-07-10T16:06:55.075Z,98314.56
2018-07-10T16:09:22.729Z,98308.37
2018-07-10T16:11:53.531Z,98314.47
2018-07-10T16:14:20.816Z,98318.24
2018-07-10T16:16:48.107Z,98324.34
2018-07-10T16:19:20.590Z,98317.68
2018-07-10T16:21:52.832Z,98316.52
2018-07-10T16:24:20.475Z,98327.84
2018-07-10T16:26:47.764Z,98324.34
2018-07-10T16:29:18.412Z,98327.95
2018-07-10T16:31:47.000Z,98321.69
2018-07-10T16:34:14.361Z,98325.68
2018-07-10T16:36:41.677Z,98320.74
2018-07-10T16:39:09.011Z,98330.23
2018-07-10T16:41:41.802Z,98330.04
2018-07-10T16:44:09.390Z,98330.89
2018-07-10T16:46:36.925Z,98332.20
2018-07-10T16:49:13.481Z,98329.73
2018-07-10T16:51:46.378Z,98339.43
2018-07-10T16:54:13.828Z,98329.17
2018-07-10T16:56:41.195Z,98342.31
2018-07-10T16:59:08.603Z,98333.73
2018-07-10T17:01:36.014Z,98340.35
2018-07-10T17:04:04.072Z,98331.57
2018-07-10T17:06:31.449Z,98338.23
2018-07-10T17:08:58.877Z,98336.04
2018-07-10T17:11:26.910Z,98333.77
2018-07-10T17:13:54.337Z,98328.66
2018-07-10T17:16:28.631Z,98338.48
2018-07-10T17:18:56.533Z,98340.39
2018-07-10T17:21:24.437Z,98344.22
2018-07-10T17:23:53.085Z,98344.38
2018-07-10T17:26:20.549Z,98345.30
2018-07-10T17:28:48.533Z,98343.90
2018-07-10T17:31:15.943Z,98349.70
2018-07-10T17:33:43.356Z,98357.20
2018-07-10T17:36:10.709Z,98354.61
2018-07-10T17:38:38.187Z,98360.25
2018-07-10T17:41:07.820Z,98347.42
2018-07-10T17:43:35.425Z,98349.28
2018-07-10T17:46:02.963Z,98355.80
2018-07-10T17:48:30.341Z,98362.55
2018-07-10T17:50:57.872Z,98361.91
2018-07-10T17:53:25.329Z,98371.30
2018-07-10T17:55:53.150Z,98369.44
2018-07-10T17:58:22.003Z,98369.56
2018-07-10T18:00:50.322Z,98376.44
2018-07-10T18:03:17.727Z,98387.42
2018-07-10T18:05:45.307Z,98386.59
2018-07-10T18:08:13.199Z,98388.25
2018-07-10T18:10:41.929Z,98390.92
2018-07-10T18:13:10.000Z,98393.50
2018-07-10T18:15:38.890Z,98400.69
2018-07-10T18:18:06.568Z,98400.41
2018-07-10T18:20:35.324Z,98397.53
2018-07-10T18:23:03.534Z,98397.98
2018-07-10T18:25:31.150Z,98398.42
2018-07-10T18:27:59.378Z,98395.28
2018-07-10T18:30:26.887Z,98402.58
2018-07-10T18:32:55.691Z,98396.75
2018-07-10T18:35:23.320Z,98403.66
2018-07-10T18:37:52.661Z,98405.59
2018-07-10T18:40:20.383Z,98403.06
2018-07-10T18:42:48.026Z,98405.45
2018-07-10T18:45:15.673Z,98401.39
2018-07-10T18:47:44.586Z,98409.92
2018-07-10T18:50:12.562Z,98414.37
2018-07-10T18:52:40.116Z,98414.99
2018-07-10T18:55:07.853Z,98421.23
2018-07-10T18:59:46.765Z,98420.33
2018-07-10T19:02:20.238Z,98422.79
2018-07-10T19:04:51.589Z,98422.40
2018-07-10T19:07:19.342Z,98429.96
2018-07-10T19:09:47.001Z,98432.34
2018-07-10T19:12:14.570Z,98427.19
2018-07-10T19:14:42.700Z,98430.73
2018-07-10T19:17:14.398Z,98423.09
2018-07-10T19:19:46.838Z,98425.20
2018-07-10T19:22:15.843Z,98423.77
2018-07-10T19:24:43.346Z,98420.95
2018-07-10T19:27:32.030Z,98427.73
2018-07-10T19:30:05.659Z,98429.80
2018-07-10T19:32:33.500Z,98433.58
2018-07-10T19:35:01.438Z,98432.13
2018-07-10T19:37:30.618Z,98439.73
2018-07-10T19:39:58.102Z,98440.66
2018-07-10T19:42:26.209Z,98439.81
2018-07-10T19:44:53.604Z,98445.77
2018-07-10T19:47:22.410Z,98450.99
2018-07-10T19:49:50.434Z,98444.85
2018-07-10T19:52:19.313Z,98447.61
2018-07-10T19:54:47.313Z,98438.09
2018-07-10T19:59:26.704Z,98435.98
2018-07-10T20:02:00.663Z,98434.73
2018-07-10T20:04:46.922Z,98438.09
2018-07-10T20:07:26.385Z,98437.89
2018-07-10T20:09:57.472Z,98438.03
2018-07-10T20:12:30.258Z,98432.59
2018-07-10T20:15:06.822Z,98433.13
2018-07-10T20:17:38.224Z,98433.98
2018-07-10T20:20:10.578Z,98435.57
2018-07-10T20:23:19.817Z,98429.88
2018-07-10T20:26:27.459Z,98434.78
2018-07-10T20:29:04.691Z,98433.57
2018-07-10T20:31:41.310Z,98425.70
2018-07-10T20:34:21.566Z,98424.84
2018-07-10T20:36:55.530Z,98429.73
2018-07-10T20:39:35.276Z,98422.66
2018-07-10T20:42:02.706Z,98430.81
2018-07-10T20:44:31.793Z,98428.02
2018-07-10T20:47:02.066Z,98432.13
2018-07-10T20:49:38.454Z,98430.34
2018-07-10T20:52:06.862Z,98439.00
2018-07-10T20:54:41.061Z,98435.49
2018-07-10T20:57:18.578Z,98434.74
2018-07-10T20:59:46.002Z,98435.81
2018-07-10T21:02:26.660Z,98437.38
2018-07-10T21:05:14.626Z,98442.91
2018-07-10T21:07:52.043Z,98439.41
2018-07-10T21:10:28.954Z,98446.22
2018-07-10T21:13:04.029Z,98438.13
2018-07-10T21:15:45.957Z,98435.88
2018-07-10T21:18:24.905Z,98435.35
2018-07-10T21:20:59.406Z,98430.08
2018-07-10T21:24:35.814Z,98431.30
2018-07-10T21:27:05.778Z,98431.95
2018-07-10T21:30:43.263Z,98429.77
2018-07-10T21:33:49.787Z,98426.58
2018-07-10T21:36:19.269Z,98427.90
2018-07-10T21:39:01.795Z,98427.04
2018-07-10T21:41:39.987Z,98429.29
2018-07-10T21:45:21.425Z,98434.78
2018-07-10T21:49:57.050Z,98431.69
2018-07-10T21:52:24.814Z,98427.48
2018-07-10T21:54:52.116Z,98431.38
2018-07-10T21:57:25.882Z,98426.03
2018-07-10T21:59:55.137Z,98436.28
2018-07-10T22:02:22.657Z,98434.27
2018-07-10T22:04:53.281Z,98428.34
2018-07-10T22:07:20.899Z,98430.59
2018-07-10T22:09:48.389Z,98426.77
2018-07-10T22:12:19.005Z,98423.30
2018-07-10T22:14:46.443Z,98422.20
2018-07-10T22:17:18.959Z,98417.27
2018-07-10T22:19:47.243Z,98429.20
2018-07-10T22:22:18.799Z,98431.21
2018-07-10T22:24:47.027Z,98430.28
2018-07-10T22:27:14.311Z,98427.15
2018-07-10T22:29:47.188Z,98425.83
2018-07-10T22:32:20.238Z,98419.34
2018-07-10T22:34:47.525Z,98418.48
2018-07-10T22:37:14.843Z,98413.50
2018-07-10T22:39:42.623Z,98413.77
2018-07-10T22:42:09.940Z,98418.66
2018-07-10T22:44:40.431Z,98411.12
2018-07-10T22:47:07.781Z,98414.49
2018-07-10T22:49:35.050Z,98417.06
2018-07-10T22:52:03.186Z,98419.84
2018-07-10T22:54:32.680Z,98417.34
2018-07-10T22:56:59.999Z,98420.30
2018-07-10T22:59:27.537Z,98412.73
2018-07-10T23:01:54.808Z,98416.03
2018-07-10T23:04:22.099Z,98412.29
2018-07-10T23:06:49.367Z,98414.23
2018-07-10T23:09:16.732Z,98410.67
2018-07-10T23:11:44.061Z,98406.42
2018-07-10T23:14:11.398Z,98401.70
2018-07-10T23:16:39.806Z,98399.03
2018-07-10T23:19:07.443Z,98398.83
2018-07-10T23:21:36.286Z,98401.34
2018-07-10T23:24:03.611Z,98398.67
2018-07-10T23:26:31.130Z,98400.84
2018-07-10T23:28:58.482Z,98401.18
2018-07-10T23:31:27.947Z,98394.27
2018-07-10T23:34:01.854Z,98392.48
2018-07-10T23:36:29.163Z,98397.22
2018-07-10T23:39:12.264Z,98391.13
2018-07-10T23:42:29.060Z,98395.23
2018-07-10T23:44:59.326Z,98384.06
2018-07-10T23:47:29.690Z,98387.17
2018-07-10T23:50:18.079Z,98388.03
2018-07-10T23:53:01.262Z,98386.15
2018-07-10T23:55:28.574Z,98386.08
2018-07-10T23:57:55.833Z,98385.16
